Time;durP1;ratioP1;P1;durP2;ratioP2;P2;SDS_P1;SDS_P2;PMS_P1;PMS_P2;Temp;Humidity;BMP_temperature;BMP_pressure;BME280_temperature;BME280_humidity;BME280_pressure;Samples;Min_cycle;Max_cycle;Signal;HPM_P1;HPM_P2
2022/02/27 00:00:08;;;;;;;2.70;0.98;;;;;;;3.15;44.49;100910.47;5073443;28;20028;-64
2022/02/27 00:02:34;;;;;;;3.00;1.00;;;;;;;3.17;44.60;100921.88;5055007;28;20374;-64
2022/02/27 00:04:59;;;;;;;1.73;0.80;;;;;;;3.17;44.07;100921.88;5073402;28;20033;-64
2022/02/27 00:07:25;;;;;;;2.05;1.05;;;;;;;3.11;44.10;100906.16;5073669;28;20024;-65
2022/02/27 00:09:50;;;;;;;2.40;1.10;;;;;;;3.16;44.60;100925.44;5073573;28;20028;-65
2022/02/27 00:12:16;;;;;;;3.58;0.73;;;;;;;3.10;44.52;100917.66;5073975;28;20417;-66
2022/02/27 00:14:41;;;;;;;3.28;1.13;;;;;;;3.11;44.33;100929.97;5073243;28;20028;-65
2022/02/27 00:17:07;;;;;;;3.33;1.23;;;;;;;3.05;44.58;100917.84;5073156;28;20394;-65
2022/02/27 00:19:33;;;;;;;2.83;0.95;;;;;;;3.06;44.98;100916.03;5055377;28;20028;-65
2022/02/27 00:21:58;;;;;;;3.45;1.25;;;;;;;2.93;44.87;100895.28;5073559;28;20072;-65
2022/02/27 00:24:24;;;;;;;2.42;0.98;;;;;;;2.89;45.12;100892.78;5073206;28;20126;-65
2022/02/27 00:26:49;;;;;;;3.08;1.10;;;;;;;3.14;45.13;100932.56;5072923;28;20163;-65
2022/02/27 00:29:15;;;;;;;4.05;1.27;;;;;;;3.04;45.05;100923.16;5073321;28;20145;-65
2022/02/27 00:31:41;;;;;;;4.50;1.40;;;;;;;3.09;45.32;100935.34;5073656;28;20036;-65
2022/02/27 00:34:06;;;;;;;6.40;1.48;;;;;;;3.06;45.43;100940.72;5073020;28;20041;-65
2022/02/27 00:36:32;;;;;;;3.25;1.50;;;;;;;3.01;45.84;100932.03;5072855;28;20028;-63
2022/02/27 00:38:57;;;;;;;3.20;1.00;;;;;;;2.94;45.78;100941.09;5072911;28;20024;-64
2022/02/27 00:41:23;;;;;;;2.70;0.95;;;;;;;2.96;46.09;100953.38;5073136;28;20032;-65
2022/02/27 00:43:48;;;;;;;2.92;1.08;;;;;;;2.86;45.99;100939.56;5072638;28;20454;-63
2022/02/27 00:46:14;;;;;;;1.50;0.88;;;;;;;2.91;46.04;100950.00;5072684;28;20035;-64
2022/02/27 00:48:40;;;;;;;3.33;1.08;;;;;;;2.92;45.97;100956.16;5072528;28;20078;-64
2022/02/27 00:51:05;;;;;;;3.75;1.00;;;;;;;2.67;46.28;100917.22;5072560;28;20024;-63
2022/02/27 00:53:31;;;;;;;3.30;1.00;;;;;;;2.94;46.13;100965.78;5072872;28;20064;-65
2022/02/27 00:55:57;;;;;;;3.80;1.20;;;;;;;2.87;46.46;100958.94;5072441;28;20067;-65
2022/02/27 00:58:22;;;;;;;1.80;0.60;;;;;;;2.85;46.82;100968.69;5072286;28;20060;-65
2022/02/27 01:00:48;;;;;;;4.43;0.90;;;;;;;2.82;46.97;100967.03;5072363;28;20497;-65
2022/02/27 01:03:13;;;;;;;2.13;1.05;;;;;;;2.80;46.86;100963.56;5072137;28;20056;-67
2022/02/27 01:05:39;;;;;;;3.10;1.13;;;;;;;2.79;46.94;100963.59;5072757;28;20111;-65
2022/02/27 01:08:05;;;;;;;2.83;1.10;;;;;;;2.82;46.87;100977.59;5072482;28;20025;-65
2022/02/27 01:10:30;;;;;;;6.30;1.25;;;;;;;2.81;47.13;100975.88;5072450;28;20024;-65
2022/02/27 01:12:56;;;;;;;2.58;0.95;;;;;;;2.82;47.44;100979.38;5071981;28;20032;-65
2022/02/27 01:15:22;;;;;;;4.05;1.20;;;;;;;2.80;47.30;100981.19;5072226;28;20081;-65
2022/02/27 01:17:47;;;;;;;1.83;1.10;;;;;;;2.77;47.18;100987.44;5071828;28;20468;-65
2022/02/27 01:20:13;;;;;;;2.15;0.93;;;;;;;2.68;47.53;100983.31;5072178;28;20029;-64
2022/02/27 01:22:39;;;;;;;3.58;1.60;;;;;;;2.63;47.86;100973.75;5072200;28;20401;-65
2022/02/27 01:25:06;;;;;;;1.55;0.88;;;;;;;2.61;48.02;100983.53;5053968;28;20040;-64
2022/02/27 01:27:32;;;;;;;4.40;1.35;;;;;;;2.51;48.00;100982.91;5072099;28;20036;-65
2022/02/27 01:29:57;;;;;;;3.42;1.20;;;;;;;2.55;48.08;100992.50;5072351;28;20040;-68
2022/02/27 01:32:23;;;;;;;2.80;1.15;;;;;;;2.51;48.66;100993.50;5071803;28;20028;-66
2022/02/27 01:34:49;;;;;;;1.63;0.90;;;;;;;2.41;48.69;100985.81;5071511;28;20032;-64
2022/02/27 01:37:16;;;;;;;3.10;0.82;;;;;;;2.48;49.26;100996.22;5072203;28;20169;-65
2022/02/27 01:39:41;;;;;;;2.95;1.27;;;;;;;2.42;48.65;100998.13;5071967;28;20543;-65
2022/02/27 01:42:11;;;;;;;2.85;1.13;;;;;;;2.49;48.54;101003.25;5071617;28;20125;-66
2022/02/27 01:44:39;;;;;;;3.40;1.30;;;;;;;2.46;49.11;101004.19;5071311;28;20123;-64
2022/02/27 01:47:11;;;;;;;1.70;0.93;;;;;;;2.47;48.88;101011.19;5072160;28;20386;-65
2022/02/27 01:49:38;;;;;;;3.60;1.20;;;;;;;2.44;49.12;101009.53;5071136;28;20370;-63
2022/02/27 01:52:05;;;;;;;2.10;1.00;;;;;;;2.46;49.11;101019.19;5071506;28;20059;-64
2022/02/27 01:54:31;;;;;;;2.00;1.00;;;;;;;2.25;49.44;100995.06;5071602;28;20028;-64
2022/02/27 01:56:58;;;;;;;1.77;0.90;;;;;;;2.34;49.83;101021.25;5071904;28;20385;-65
2022/02/27 01:59:24;;;;;;;4.25;1.20;;;;;;;2.28;49.73;101006.41;5071579;28;20477;-65
2022/02/27 02:01:50;;;;;;;2.38;0.88;;;;;;;2.32;49.63;101030.13;5071302;28;20154;-64
2022/02/27 02:04:15;;;;;;;2.22;0.90;;;;;;;2.26;49.80;101018.81;5071528;28;20040;-66
2022/02/27 02:06:41;;;;;;;2.83;1.00;;;;;;;2.29;49.94;101036.38;5071567;28;20055;-65
2022/02/27 02:09:07;;;;;;;3.88;1.02;;;;;;;2.27;49.94;101032.91;5071212;28;20173;-63
2022/02/27 02:11:34;;;;;;;4.18;1.23;;;;;;;2.23;50.30;101037.38;5070993;28;20141;-64
2022/02/27 02:14:00;;;;;;;1.67;0.85;;;;;;;2.19;50.56;101029.59;5070901;28;20025;-65
2022/02/27 02:16:26;;;;;;;1.83;1.00;;;;;;;2.12;51.13;101042.94;5071722;28;20107;-65
2022/02/27 02:18:51;;;;;;;2.05;1.20;;;;;;;2.14;51.16;101049.06;5071069;28;20178;-65
2022/02/27 02:21:17;;;;;;;3.10;1.10;;;;;;;2.20;50.41;101052.47;5070996;28;20045;-64
2022/02/27 02:23:42;;;;;;;3.75;1.05;;;;;;;2.14;50.99;101051.69;5070672;28;20037;-64
2022/02/27 02:26:09;;;;;;;2.15;1.10;;;;;;;2.10;51.41;101059.78;5070945;28;20047;-61
2022/02/27 02:28:35;;;;;;;2.20;1.17;;;;;;;2.14;50.96;101061.41;5071465;28;20028;-63
2022/02/27 02:31:00;;;;;;;3.63;1.25;;;;;;;2.04;51.00;101054.63;5070606;28;20368;-65
2022/02/27 02:33:34;;;;;;;2.78;1.10;;;;;;;2.07;51.25;101068.63;5071037;28;20555;-65
2022/02/27 02:36:00;;;;;;;3.67;1.02;;;;;;;1.96;51.38;101052.19;5071270;28;20032;-65
2022/02/27 02:38:26;;;;;;;2.25;1.30;;;;;;;1.97;51.52;101064.50;5070652;28;20028;-64
2022/02/27 02:40:51;;;;;;;2.35;1.08;;;;;;;1.98;51.68;101074.16;5070616;28;20528;-64
2022/02/27 02:43:17;;;;;;;3.92;0.90;;;;;;;2.02;51.69;101078.44;5053019;28;20074;-63
2022/02/27 02:45:42;;;;;;;1.45;0.70;;;;;;;1.95;51.98;101061.03;5070685;28;20075;-65
2022/02/27 02:48:08;;;;;;;2.47;1.02;;;;;;;1.98;51.91;101071.50;5071102;28;20031;-63
2022/02/27 02:50:33;;;;;;;2.55;1.20;;;;;;;2.01;51.62;101076.72;5052758;28;20025;-64
2022/02/27 02:52:59;;;;;;;1.65;0.98;;;;;;;1.94;52.04;101080.41;5052776;28;20501;-65
2022/02/27 02:55:25;;;;;;;3.90;1.15;;;;;;;1.90;52.46;101086.66;5070710;28;20032;-64
2022/02/27 02:57:50;;;;;;;3.00;1.23;;;;;;;1.89;52.51;101084.91;5070673;28;20162;-64
2022/02/27 03:00:16;;;;;;;1.40;0.95;;;;;;;1.96;51.82;101091.81;5070495;28;20028;-64
2022/02/27 03:02:41;;;;;;;2.80;0.80;;;;;;;1.91;51.77;101101.59;5070687;28;20037;-63
2022/02/27 03:05:08;;;;;;;2.22;0.70;;;;;;;1.77;52.95;101105.44;5070577;28;20492;-64
2022/02/27 03:07:35;;;;;;;1.38;0.70;;;;;;;1.73;53.02;101111.72;5070456;28;20033;-66
2022/02/27 03:10:00;;;;;;;3.85;0.73;;;;;;;1.70;53.21;101110.00;5070740;28;20024;-65
2022/02/27 03:12:26;;;;;;;2.08;0.90;;;;;;;1.67;52.95;101115.34;5070665;28;20452;-65
2022/02/27 03:14:51;;;;;;;2.90;1.05;;;;;;;1.66;53.43;101115.38;5070684;28;20393;-65
2022/02/27 03:17:17;;;;;;;2.83;0.90;;;;;;;1.45;53.51;101082.41;5071105;28;20028;-67
2022/02/27 03:19:42;;;;;;;2.15;0.90;;;;;;;1.56;53.59;101115.59;5070563;28;20025;-67
2022/02/27 03:22:08;;;;;;;3.50;0.80;;;;;;;1.63;53.68;101128.66;5070647;28;20397;-66
2022/02/27 03:24:34;;;;;;;1.70;0.70;;;;;;;1.58;53.89;101141.97;5070739;28;20033;-66
2022/02/27 03:26:59;;;;;;;1.95;0.95;;;;;;;1.61;53.97;101148.94;5070434;28;20090;-64
2022/02/27 03:29:25;;;;;;;1.63;0.80;;;;;;;1.62;54.09;101155.94;5070123;28;20028;-64
2022/02/27 03:31:50;;;;;;;3.25;0.85;;;;;;;1.63;54.08;101153.28;5070515;28;20041;-65
2022/02/27 03:34:16;;;;;;;1.17;0.95;;;;;;;1.63;53.73;101160.31;5070859;28;20032;-64
2022/02/27 03:36:41;;;;;;;2.80;0.90;;;;;;;1.61;53.75;101154.22;5072535;28;20029;-62
2022/02/27 03:39:07;;;;;;;1.20;0.63;;;;;;;1.66;53.81;101157.63;5074346;28;20024;-65
2022/02/27 03:41:32;;;;;;;2.22;0.90;;;;;;;1.66;53.35;101165.53;5074238;28;20111;-65
2022/02/27 03:43:58;;;;;;;2.33;1.00;;;;;;;1.58;53.44;101171.88;5074055;28;20334;-64
2022/02/27 03:46:23;;;;;;;1.88;0.90;;;;;;;1.54;53.66;101172.84;5055534;28;20032;-64
2022/02/27 03:48:49;;;;;;;1.88;0.88;;;;;;;1.49;54.25;101180.00;5073752;28;20032;-64
2022/02/27 03:51:14;;;;;;;2.78;0.98;;;;;;;1.51;53.83;101175.53;5074173;28;20025;-64
2022/02/27 03:53:40;;;;;;;4.03;0.93;;;;;;;1.41;53.68;101166.06;5074108;28;20454;-64
2022/02/27 03:56:05;;;;;;;2.00;1.20;;;;;;;1.47;54.07;101187.06;5055630;28;20432;-64
2022/02/27 03:58:31;;;;;;;2.45;1.00;;;;;;;1.50;53.82;101205.47;5073530;28;20028;-64
2022/02/27 04:00:56;;;;;;;1.60;0.90;;;;;;;1.44;53.96;101189.75;5073669;28;20507;-65
2022/02/27 04:03:22;;;;;;;1.77;1.00;;;;;;;1.43;53.56;101217.94;5074081;28;20040;-65
2022/02/27 04:05:47;;;;;;;2.67;0.77;;;;;;;1.32;53.80;101216.41;5073259;28;20020;-64
2022/02/27 04:08:13;;;;;;;1.67;0.75;;;;;;;1.25;54.10;101220.91;5073277;28;20363;-63
2022/02/27 04:10:40;;;;;;;3.40;1.30;;;;;;;1.32;53.46;101224.31;5073814;28;20462;-63
2022/02/27 04:13:06;;;;;;;1.45;0.90;;;;;;;1.20;53.75;101241.25;5073637;28;20028;-66
2022/02/27 04:15:32;;;;;;;2.33;0.90;;;;;;;1.04;54.13;101220.44;5073226;28;20028;-64
2022/02/27 04:17:58;;;;;;;1.77;1.13;;;;;;;1.10;54.21;101240.56;5073038;28;20428;-65
2022/02/27 04:20:24;;;;;;;3.05;1.13;;;;;;;1.02;53.95;101231.91;5073522;28;20040;-63
2022/02/27 04:22:50;;;;;;;0.93;0.82;;;;;;;1.03;53.97;101241.56;5073412;28;20055;-64
2022/02/27 04:25:16;;;;;;;1.40;0.88;;;;;;;1.09;53.62;101239.69;5055371;28;20413;-64
2022/02/27 04:27:41;;;;;;;2.13;0.80;;;;;;;1.05;53.86;101252.97;5073066;28;20036;-64
2022/02/27 04:30:07;;;;;;;2.25;1.10;;;;;;;0.97;54.26;101256.63;5073058;28;20039;-64
2022/02/27 04:32:33;;;;;;;2.28;1.30;;;;;;;0.90;54.47;101254.97;5073557;28;20494;-65
2022/02/27 04:34:58;;;;;;;1.67;0.90;;;;;;;0.88;54.28;101251.47;5054970;28;20032;-63
2022/02/27 04:37:24;;;;;;;2.17;0.90;;;;;;;0.84;54.31;101260.34;5072916;28;20037;-65
2022/02/27 04:39:49;;;;;;;2.85;1.00;;;;;;;0.68;54.22;101255.31;5072803;28;20454;-63
2022/02/27 04:42:15;;;;;;;2.05;1.08;;;;;;;0.73;54.58;101271.06;5072771;28;20028;-63
2022/02/27 04:44:43;;;;;;;4.07;1.10;;;;;;;0.70;54.39;101273.75;5054706;28;20025;-64
2022/02/27 04:47:12;;;;;;;5.20;1.00;;;;;;;0.57;54.68;101273.09;5071838;28;20024;-65
2022/02/27 04:49:37;;;;;;;2.95;1.10;;;;;;;0.54;54.82;101284.53;5072643;28;20389;-64
2022/02/27 04:52:04;;;;;;;1.08;0.98;;;;;;;0.47;54.39;101284.66;5071886;28;20028;-64
2022/02/27 04:54:30;;;;;;;1.40;1.00;;;;;;;0.48;54.75;101297.81;5071982;28;20094;-65
2022/02/27 04:56:55;;;;;;;2.55;1.17;;;;;;;0.45;54.67;101296.97;5072322;28;20469;-64
2022/02/27 04:59:21;;;;;;;1.35;0.80;;;;;;;0.39;54.41;101285.63;5072218;28;20034;-65
2022/02/27 05:01:46;;;;;;;3.08;1.00;;;;;;;0.44;53.94;101285.59;5072281;28;20032;-63
2022/02/27 05:04:13;;;;;;;2.17;1.08;;;;;;;0.60;53.92;101307.31;5054706;28;20028;-65
2022/02/27 05:06:39;;;;;;;4.00;1.20;;;;;;;0.57;53.57;101309.97;5071727;28;20024;-66
2022/02/27 05:09:05;;;;;;;3.90;0.70;;;;;;;0.54;53.00;101310.88;5072146;28;20036;-66
2022/02/27 05:11:30;;;;;;;1.40;1.10;;;;;;;0.56;52.94;101319.63;5072533;28;20024;-65
2022/02/27 05:13:56;;;;;;;3.42;0.80;;;;;;;0.63;53.03;101309.88;5072115;28;20040;-65
2022/02/27 05:16:22;;;;;;;1.67;0.82;;;;;;;0.60;52.51;101304.66;5071243;28;20028;-64
2022/02/27 05:18:47;;;;;;;0.75;0.60;;;;;;;0.58;52.34;101317.00;5072102;28;20048;-63
2022/02/27 05:21:13;;;;;;;1.10;0.73;;;;;;;0.53;52.25;101316.19;5072416;28;20178;-65
2022/02/27 05:23:38;;;;;;;2.13;0.93;;;;;;;0.56;52.25;101334.59;5054116;28;20511;-65
2022/02/27 05:26:04;;;;;;;0.80;0.70;;;;;;;0.36;51.83;101274.25;5071929;28;20032;-66
2022/02/27 05:28:29;;;;;;;3.05;1.00;;;;;;;0.72;51.84;101324.69;5072451;28;20028;-65
2022/02/27 05:30:55;;;;;;;2.38;1.10;;;;;;;1.51;49.79;101320.72;5071890;28;20378;-65
2022/02/27 05:33:21;;;;;;;1.30;1.00;;;;;;;3.03;46.80;101308.63;5071684;28;20043;-65
2022/02/27 05:35:46;;;;;;;2.05;0.90;;;;;;;6.23;39.98;101326.91;5054006;28;20032;-65
2022/02/27 05:38:12;;;;;;;1.02;0.70;;;;;;;8.25;35.39;101324.63;5072194;28;20027;-67
2022/02/27 05:40:38;;;;;;;3.28;0.85;;;;;;;9.78;32.82;101328.69;5071445;28;20658;-66
2022/02/27 05:43:03;;;;;;;2.90;0.80;;;;;;;10.35;31.11;101327.41;5071605;28;20484;-65
2022/02/27 05:45:29;;;;;;;1.08;0.65;;;;;;;8.99;32.67;101298.88;5071873;28;20031;-65
2022/02/27 05:47:54;;;;;;;7.10;1.00;;;;;;;7.79;34.43;101332.94;5071981;28;20476;-65
2022/02/27 05:50:20;;;;;;;3.28;0.90;;;;;;;6.53;36.80;101356.78;5071692;28;20032;-63
2022/02/27 05:52:45;;;;;;;1.15;0.60;;;;;;;5.44;38.79;101343.91;5071604;28;20031;-65
2022/02/27 05:55:11;;;;;;;1.67;0.50;;;;;;;4.66;40.47;101362.34;5071149;28;20439;-67
2022/02/27 05:57:36;;;;;;;2.65;0.70;;;;;;;4.05;42.06;101347.38;5071599;28;20032;-66
2022/02/27 06:00:04;;;;;;;2.97;0.80;;;;;;;3.59;43.07;101366.28;5071136;28;20381;-64
2022/02/27 06:02:30;;;;;;;1.38;0.77;;;;;;;3.10;43.63;101368.41;5071542;28;20111;-64
2022/02/27 06:04:55;;;;;;;5.35;0.80;;;;;;;2.66;44.10;101371.22;5053442;28;20111;-64
2022/02/27 06:07:21;;;;;;;1.58;1.13;;;;;;;2.28;45.08;101357.91;5072176;28;20035;-64
2022/02/27 06:09:46;;;;;;;1.63;0.93;;;;;;;2.13;45.06;101372.31;5071881;28;20127;-67
2022/02/27 06:12:12;;;;;;;1.48;0.68;;;;;;;2.04;45.26;101383.09;5071368;28;20120;-68
2022/02/27 06:14:37;;;;;;;3.63;0.80;;;;;;;1.91;44.49;101393.03;5071391;28;20032;-67
2022/02/27 06:17:03;;;;;;;2.95;0.77;;;;;;;1.75;45.12;101396.84;5071852;28;20488;-66
2022/02/27 06:19:28;;;;;;;1.67;0.60;;;;;;;1.67;44.68;101386.41;5071567;28;20146;-68
2022/02/27 06:21:54;;;;;;;1.63;0.50;;;;;;;1.55;44.31;101400.72;5070968;28;20048;-66
2022/02/27 06:24:19;;;;;;;1.08;0.65;;;;;;;1.62;44.26;101412.03;5071270;28;20040;-69
2022/02/27 06:26:45;;;;;;;0.95;0.60;;;;;;;1.48;43.70;101368.28;5071435;28;20102;-73
2022/02/27 06:29:10;;;;;;;2.20;0.60;;;;;;;1.75;43.84;101410.03;5053289;28;20041;-68
2022/02/27 06:31:36;;;;;;;1.23;0.60;;;;;;;1.72;43.49;101406.56;5070749;28;20035;-68
2022/02/27 06:34:01;;;;;;;1.17;0.57;;;;;;;1.76;43.28;101410.03;5052915;28;20465;-70
2022/02/27 06:36:27;;;;;;;1.38;0.60;;;;;;;1.87;43.39;101415.13;5070894;28;20029;-69
2022/02/27 06:38:52;;;;;;;2.88;0.57;;;;;;;2.07;43.04;101419.16;5071307;28;20036;-69
2022/02/27 06:41:18;;;;;;;1.35;0.80;;;;;;;2.22;42.38;101423.25;5070776;28;20051;-69
2022/02/27 06:43:43;;;;;;;3.38;0.95;;;;;;;2.10;41.78;101387.38;5070945;28;20393;-69
2022/02/27 06:46:09;;;;;;;2.70;0.68;;;;;;;2.36;41.45;101430.91;5058714;28;20074;-65
2022/02/27 06:48:35;;;;;;;0.85;0.70;;;;;;;2.31;41.37;101438.91;5050575;28;20048;-65
2022/02/27 06:51:00;;;;;;;2.33;0.77;;;;;;;2.31;42.23;101443.34;5032513;28;20453;-67
2022/02/27 06:53:26;;;;;;;3.75;0.73;;;;;;;2.08;42.29;101426.19;5051046;28;20451;-67
2022/02/27 06:55:51;;;;;;;2.85;1.27;;;;;;;2.17;41.86;101446.25;5050913;28;20029;-71
2022/02/27 06:58:18;;;;;;;3.40;1.20;;;;;;;2.19;41.60;101460.31;5050944;28;20437;-70
2022/02/27 07:00:44;;;;;;;2.22;1.30;;;;;;;1.92;41.93;101422.94;5050691;28;20033;-65
2022/02/27 07:03:10;;;;;;;2.88;1.17;;;;;;;2.07;42.09;101450.88;5050761;28;20029;-66
2022/02/27 07:05:36;;;;;;;6.45;1.70;;;;;;;2.15;42.44;101449.78;5050605;28;20033;-65
2022/02/27 07:08:02;;;;;;;2.38;1.40;;;;;;;2.18;42.30;101450.66;5050994;28;20036;-63
2022/02/27 07:10:27;;;;;;;4.28;1.67;;;;;;;2.06;42.16;101457.91;5050882;28;20037;-68
2022/02/27 07:12:53;;;;;;;3.28;1.30;;;;;;;2.01;41.94;101451.84;5054840;28;20124;-66
2022/02/27 07:15:19;;;;;;;5.32;1.50;;;;;;;1.80;42.19;101422.28;5055066;28;20056;-70
2022/02/27 07:17:44;;;;;;;2.05;1.40;;;;;;;1.93;42.19;101461.66;5054835;28;20127;-65
2022/02/27 07:20:10;;;;;;;4.03;1.50;;;;;;;1.93;42.31;101466.94;5054054;28;20122;-65
2022/02/27 07:22:37;;;;;;;5.68;1.52;;;;;;;1.93;42.65;101473.09;5054323;28;20052;-65
2022/02/27 07:25:04;;;;;;;3.13;1.42;;;;;;;2.00;42.78;101477.38;5054240;28;20402;-66
2022/02/27 07:27:34;;;;;;;2.70;1.60;;;;;;;2.01;42.49;101473.81;5054435;28;20131;-67
2022/02/27 07:30:00;;;;;;;6.82;1.65;;;;;;;2.01;42.44;101472.97;5054549;28;20032;-65
2022/02/27 07:32:26;;;;;;;2.47;1.60;;;;;;;2.18;41.92;101483.22;5054273;28;20025;-64
2022/02/27 07:34:51;;;;;;;1.83;1.42;;;;;;;2.14;41.47;101484.19;5054286;28;20094;-66
2022/02/27 07:37:17;;;;;;;3.70;1.40;;;;;;;2.20;41.17;101488.50;5054085;28;20033;-66
2022/02/27 07:39:42;;;;;;;3.53;1.40;;;;;;;2.33;41.10;101479.41;5054055;28;20044;-66
2022/02/27 07:42:08;;;;;;;2.85;1.50;;;;;;;2.47;41.02;101475.63;5054303;28;20056;-66
2022/02/27 07:44:34;;;;;;;4.15;1.52;;;;;;;2.65;40.46;101480.56;5054201;28;20407;-64
2022/02/27 07:46:59;;;;;;;4.93;1.70;;;;;;;2.79;40.29;101472.31;5053497;28;20025;-64
2022/02/27 07:49:25;;;;;;;2.58;1.38;;;;;;;3.05;39.76;101477.91;5054002;28;20410;-66
2022/02/27 07:51:52;;;;;;;6.35;3.05;;;;;;;3.25;39.71;101480.09;5054016;28;20056;-67
2022/02/27 07:54:18;;;;;;;6.35;3.00;;;;;;;3.49;38.60;101488.38;5053839;28;20086;-66
2022/02/27 07:56:44;;;;;;;5.50;1.95;;;;;;;3.61;38.60;101472.19;5053597;28;20033;-67
2022/02/27 07:59:10;;;;;;;5.70;2.40;;;;;;;3.51;38.73;101433.63;5052341;28;20032;-65
2022/02/27 08:01:35;;;;;;;2.88;1.52;;;;;;;3.85;37.39;101473.31;5072282;28;20107;-69
2022/02/27 08:04:01;;;;;;;1.85;0.80;;;;;;;4.20;37.55;101475.94;5073235;28;20028;-65
2022/02/27 08:06:26;;;;;;;4.95;1.60;;;;;;;3.51;37.04;101438.91;5071293;28;20036;-66
2022/02/27 08:08:53;;;;;;;2.60;1.70;;;;;;;3.47;38.56;101484.88;5055198;28;20028;-64
2022/02/27 08:11:18;;;;;;;7.70;1.95;;;;;;;3.47;38.95;101487.53;5073018;28;20028;-66
2022/02/27 08:13:44;;;;;;;2.53;0.98;;;;;;;3.44;38.03;101486.72;5073591;28;20039;-66
2022/02/27 08:16:10;;;;;;;1.30;0.98;;;;;;;3.52;38.34;101489.16;5072943;28;20172;-66
2022/02/27 08:18:35;;;;;;;3.20;1.40;;;;;;;3.61;38.14;101479.25;5072339;28;20028;-66
2022/02/27 08:21:01;;;;;;;3.40;1.23;;;;;;;3.84;38.54;101489.28;5073141;28;20032;-64
2022/02/27 08:23:27;;;;;;;2.40;1.38;;;;;;;4.13;38.02;101490.28;5072264;28;20097;-66
2022/02/27 08:25:54;;;;;;;2.20;1.02;;;;;;;4.37;36.92;101479.91;5071943;28;20123;-66
2022/02/27 08:28:21;;;;;;;2.35;1.55;;;;;;;4.50;36.46;101483.09;5072907;28;20032;-65
2022/02/27 08:30:46;;;;;;;2.85;1.30;;;;;;;4.49;35.97;101481.34;5072549;28;20029;-64
2022/02/27 08:33:12;;;;;;;1.98;0.98;;;;;;;4.42;36.37;101483.31;5072853;28;20020;-65
2022/02/27 08:35:38;;;;;;;3.13;0.80;;;;;;;4.26;36.98;101481.09;5054969;28;20430;-65
2022/02/27 08:38:03;;;;;;;4.40;1.10;;;;;;;4.17;37.22;101486.63;5072411;28;20033;-66
2022/02/27 08:40:29;;;;;;;2.75;1.10;;;;;;;3.73;36.97;101449.81;5072876;28;20029;-66
2022/02/27 08:42:56;;;;;;;2.70;1.20;;;;;;;3.80;36.99;101503.53;5072527;28;20063;-67
2022/02/27 08:45:23;;;;;;;4.38;1.15;;;;;;;3.67;38.32;101493.22;5072500;28;20474;-66
2022/02/27 08:47:50;;;;;;;1.58;1.20;;;;;;;3.58;37.70;101489.00;5072670;28;20462;-67
2022/02/27 08:50:15;;;;;;;2.25;1.20;;;;;;;3.78;37.48;101502.69;5071949;28;20032;-67
2022/02/27 08:52:41;;;;;;;4.68;1.13;;;;;;;3.91;37.58;101490.00;5072281;28;20090;-67
2022/02/27 08:55:08;;;;;;;2.45;1.20;;;;;;;4.03;37.41;101489.66;5072632;28;20043;-68
2022/02/27 08:57:34;;;;;;;3.95;1.42;;;;;;;4.10;37.50;101496.56;5072071;28;20025;-68
2022/02/27 08:59:59;;;;;;;2.28;1.20;;;;;;;4.21;36.91;101503.34;5070842;28;20036;-64
2022/02/27 09:02:25;;;;;;;3.45;0.90;;;;;;;4.50;36.06;101496.34;5053916;28;20033;-66
2022/02/27 09:04:50;;;;;;;7.65;1.30;;;;;;;4.54;36.03;101461.75;5071797;28;20157;-68
2022/02/27 09:07:17;;;;;;;2.25;1.20;;;;;;;4.94;34.92;101511.88;5071208;28;20074;-69
2022/02/27 09:09:43;;;;;;;7.18;1.35;;;;;;;4.76;34.78;101482.34;5071248;28;20063;-66
2022/02/27 09:12:10;;;;;;;2.08;1.20;;;;;;;4.82;35.52;101513.13;5071306;28;20028;-67
2022/02/27 09:14:37;;;;;;;2.75;1.48;;;;;;;4.53;35.48;101514.84;5052438;28;20033;-67
2022/02/27 09:17:03;;;;;;;3.75;1.40;;;;;;;4.12;35.89;101489.44;5071045;28;20055;-67
2022/02/27 09:19:28;;;;;;;4.20;1.10;;;;;;;4.27;36.46;101511.13;5071671;28;20033;-66
2022/02/27 09:21:54;;;;;;;7.75;1.95;;;;;;;4.37;36.47;101517.03;5071015;28;20055;-66
2022/02/27 09:24:20;;;;;;;4.45;1.38;;;;;;;4.20;36.40;101502.47;5052596;28;20040;-68
2022/02/27 09:26:45;;;;;;;2.13;1.42;;;;;;;4.16;36.29;101516.72;5070996;28;20040;-72
2022/02/27 09:29:12;;;;;;;4.68;1.50;;;;;;;3.95;36.61;101512.84;5037328;28;20032;-73
2022/02/27 09:31:37;;;;;;;6.15;1.60;;;;;;;3.98;36.56;101518.06;5071303;28;20033;-69
2022/02/27 09:34:04;;;;;;;3.17;1.52;;;;;;;3.85;36.62;101520.16;5053017;28;20039;-70
2022/02/27 09:36:29;;;;;;;2.95;1.73;;;;;;;4.06;36.40;101526.69;5067880;28;20052;-67
2022/02/27 09:38:55;;;;;;;6.00;1.70;;;;;;;4.22;35.97;101521.00;5071046;28;20117;-69
2022/02/27 09:41:21;;;;;;;2.53;1.50;;;;;;;4.21;35.88;101521.91;5064100;28;20529;-68
2022/02/27 09:43:53;;;;;;;4.28;1.73;;;;;;;3.96;36.36;101527.84;5070031;28;20389;-72
2022/02/27 09:46:20;;;;;;;3.40;1.85;;;;;;;3.53;36.77;101532.44;5071261;28;20024;-71
2022/02/27 09:48:46;;;;;;;3.45;1.65;;;;;;;3.09;37.67;101529.88;5049839;28;20021;-75
2022/02/27 09:51:12;;;;;;;3.03;1.70;;;;;;;2.87;38.02;101522.38;5071290;28;20025;-72
2022/02/27 09:53:38;;;;;;;2.40;1.50;;;;;;;3.05;38.09;101525.56;5052925;28;20043;-74
2022/02/27 09:56:04;;;;;;;2.42;1.20;;;;;;;2.55;37.45;101481.63;5071227;28;20469;-72
2022/02/27 09:58:30;;;;;;;4.50;1.85;;;;;;;2.45;38.56;101504.72;5069902;28;20028;-72
2022/02/27 10:00:55;;;;;;;6.43;1.67;;;;;;;2.70;39.36;101521.00;5070749;28;20032;-73
2022/02/27 10:03:31;;;;;;;6.50;2.00;;;;;;;3.09;38.50;101527.22;5070962;28;20440;-72
2022/02/27 10:06:17;;;;;;;3.47;1.67;;;;;;;3.37;38.40;101527.47;5071338;28;20081;-72
2022/02/27 10:08:57;;;;;;;4.20;1.70;;;;;;;3.42;37.86;101522.09;5071698;28;20109;-71
2022/02/27 10:11:23;;;;;;;2.83;1.20;;;;;;;2.98;37.55;101482.47;5070987;28;20043;-72
2022/02/27 10:13:52;;;;;;;3.78;1.20;;;;;;;3.22;37.68;101525.19;5070812;28;20032;-72
2022/02/27 10:16:29;;;;;;;3.97;1.08;;;;;;;3.36;37.38;101524.84;5071429;28;20393;-72
2022/02/27 10:18:58;;;;;;;2.85;1.20;;;;;;;3.35;37.78;101528.41;5053080;28;20038;-71
2022/02/27 10:21:26;;;;;;;1.52;0.70;;;;;;;3.19;37.68;101527.91;5070880;28;20120;-71
2022/02/27 10:24:12;;;;;;;1.30;0.65;;;;;;;3.03;38.01;101522.06;5070599;28;20500;-72
2022/02/27 10:26:39;;;;;;;;;;;;;;;2.99;38.78;101530.09;5071108;28;20058;-72
2022/02/27 10:29:07;;;;;;;1.88;0.80;;;;;;;2.68;38.36;101527.19;5070759;28;20385;-70
2022/02/27 10:31:34;;;;;;;3.95;1.20;;;;;;;2.58;38.61;101535.34;5053092;28;20033;-73
2022/02/27 10:34:13;;;;;;;1.98;0.77;;;;;;;2.46;39.39;101524.13;5052799;28;20107;-71
2022/02/27 10:37:08;;;;;;;3.00;1.02;;;;;;;2.41;39.38;101521.56;5070793;28;20389;-72
2022/02/27 10:39:42;;;;;;;3.22;1.00;;;;;;;2.19;39.54;101523.75;5070692;28;20076;-71
2022/02/27 10:42:34;;;;;;;2.15;0.85;;;;;;;2.23;39.35;101530.72;5053740;28;20029;-71
2022/02/27 10:45:06;;;;;;;2.70;0.90;;;;;;;2.00;39.69;101487.94;5069181;28;20430;-73
2022/02/27 10:47:34;;;;;;;2.20;0.90;;;;;;;2.17;39.94;101520.22;5073660;28;20115;-73
2022/02/27 10:50:11;;;;;;;2.10;1.20;;;;;;;2.05;39.77;101497.53;5073359;28;20078;-70
2022/02/27 10:52:44;;;;;;;4.32;1.23;;;;;;;2.17;40.21;101521.13;5054304;28;20465;-75
2022/02/27 10:55:11;;;;;;;3.15;1.33;;;;;;;2.09;40.63;101526.53;5072801;28;20038;-71
2022/02/27 10:57:41;;;;;;;2.92;1.27;;;;;;;2.12;40.56;101526.47;5071893;28;20060;-71
2022/02/27 11:00:14;;;;;;;1.70;1.00;;;;;;;2.07;40.31;101533.63;5052473;28;20043;-71
2022/02/27 11:02:42;;;;;;;4.80;1.02;;;;;;;2.03;40.55;101520.47;5072903;28;20033;-70
2022/02/27 11:05:12;;;;;;;2.53;1.08;;;;;;;2.15;39.87;101529.06;5069201;28;20094;-72
2022/02/27 11:07:43;;;;;;;1.77;1.30;;;;;;;2.13;40.08;101538.78;5070250;28;20028;-68
2022/02/27 11:10:11;;;;;;;1.75;0.90;;;;;;;2.09;40.56;101530.97;5073469;28;20036;-68
2022/02/27 11:12:37;;;;;;;3.15;1.00;;;;;;;2.10;40.54;101520.34;5073323;28;20103;-68
2022/02/27 11:15:06;;;;;;;1.58;1.00;;;;;;;2.24;40.19;101524.53;5074131;28;20036;-70
2022/02/27 11:17:32;;;;;;;1.15;0.82;;;;;;;2.31;40.52;101535.88;5073669;28;20028;-70
2022/02/27 11:20:00;;;;;;;2.95;0.90;;;;;;;2.39;40.63;101537.44;5073179;28;20029;-68
2022/02/27 11:22:28;;;;;;;2.13;1.00;;;;;;;2.37;40.02;101533.94;5073429;28;20040;-69
2022/02/27 11:24:56;;;;;;;3.03;1.02;;;;;;;2.36;39.73;101534.84;5065297;28;20117;-71
2022/02/27 11:27:27;;;;;;;2.20;1.08;;;;;;;2.28;39.76;101537.63;5072753;28;20035;-68
2022/02/27 11:29:55;;;;;;;1.27;0.75;;;;;;;2.26;40.06;101543.88;5073050;28;20048;-68